Time;durP1;ratioP1;P1;durP2;ratioP2;P2;SDS_P1;SDS_P2;PMS_P1;PMS_P2;Temp;Humidity;BMP_temperature;BMP_pressure;BME280_temperature;BME280_humidity;BME280_pressure;Samples;Min_cycle;Max_cycle;Signal;HPM_P1;HPM_P2
2022/08/10 00:01:52;;;;;;;6.93;4.30;;;;;;;25.79;56.49;98815.63;4996158;28;20348;-60
2022/08/10 00:04:20;;;;;;;8.52;4.90;;;;;;;25.79;56.15;98809.47;5015366;28;20045;-58
2022/08/10 00:06:46;;;;;;;7.47;4.20;;;;;;;25.73;56.62;98800.59;5018319;28;20325;-58
2022/08/10 00:09:11;;;;;;;7.60;4.50;;;;;;;25.79;56.00;98820.13;5017169;28;20037;-60
2022/08/10 00:11:37;;;;;;;6.22;4.32;;;;;;;25.69;56.54;98818.09;5012209;28;20444;-58
2022/08/10 00:14:02;;;;;;;6.93;4.55;;;;;;;25.76;56.34;98824.06;5009880;28;20041;-59
2022/08/10 00:16:27;;;;;;;7.50;4.30;;;;;;;25.72;56.61;98817.63;5014814;28;20041;-60
2022/08/10 00:18:53;;;;;;;6.75;4.38;;;;;;;25.52;57.07;98786.91;5017991;28;20041;-59
2022/08/10 00:21:18;;;;;;;8.02;4.85;;;;;;;25.48;56.68;98784.94;5021752;28;20041;-60
2022/08/10 00:23:43;;;;;;;6.72;4.10;;;;;;;25.44;56.61;98776.63;5018756;28;20604;-59
2022/08/10 00:26:09;;;;;;;8.07;4.20;;;;;;;25.52;56.83;98813.53;5020250;28;20092;-59
2022/08/10 00:28:34;;;;;;;6.68;4.30;;;;;;;25.47;57.44;98828.59;4997522;28;20053;-59
2022/08/10 00:31:00;;;;;;;8.80;4.00;;;;;;;25.55;57.05;98828.19;5018371;28;20336;-59
2022/08/10 00:33:25;;;;;;;7.15;4.00;;;;;;;25.27;57.18;98789.88;5021747;28;20464;-59
2022/08/10 00:35:51;;;;;;;6.22;4.05;;;;;;;25.59;56.57;98836.53;5020141;28;20032;-58
2022/08/10 00:38:16;;;;;;;6.70;4.15;;;;;;;25.54;56.30;98821.28;4998736;28;20033;-60
2022/08/10 00:40:41;;;;;;;9.13;4.35;;;;;;;25.55;56.82;98824.75;5022234;28;20037;-60
2022/08/10 00:43:07;;;;;;;7.63;4.20;;;;;;;25.29;57.04;98797.63;5020343;28;20092;-59
2022/08/10 00:45:33;;;;;;;7.88;4.20;;;;;;;25.58;57.19;98827.72;5014004;28;20080;-59
2022/08/10 00:47:59;;;;;;;6.90;4.05;;;;;;;25.55;57.05;98828.19;5045889;28;20037;-59
2022/08/10 00:50:24;;;;;;;5.90;4.03;;;;;;;25.55;56.37;98822.06;5021593;28;20025;-58
2022/08/10 00:52:50;;;;;;;9.73;4.55;;;;;;;25.30;56.85;98786.75;5019391;28;20076;-59
2022/08/10 00:55:16;;;;;;;7.32;4.40;;;;;;;25.49;57.39;98819.31;5020644;28;20378;-61
2022/08/10 00:57:41;;;;;;;7.45;3.90;;;;;;;25.44;57.06;98811.22;5018221;28;20091;-59
2022/08/10 01:00:08;;;;;;;10.20;5.07;;;;;;;25.27;57.26;98778.44;5019626;28;20037;-59
2022/08/10 01:02:34;;;;;;;7.82;4.28;;;;;;;25.37;57.17;98805.22;5003228;28;20649;-59
2022/08/10 01:05:03;;;;;;;7.85;4.38;;;;;;;25.24;57.43;98773.56;5017886;28;20035;-58
2022/08/10 01:07:48;;;;;;;;;;;;;;;25.39;57.52;98802.34;5017669;28;20040;-59
2022/08/10 01:10:54;;;;;;;7.53;3.83;;;;;;;25.39;57.57;98805.81;5014858;28;20288;-58
2022/08/10 01:13:31;;;;;;;7.13;4.40;;;;;;;25.35;57.24;98795.88;5014840;28;20072;-59
2022/08/10 01:15:56;;;;;;;8.00;4.25;;;;;;;25.38;57.58;98795.41;5018900;28;20038;-58
2022/08/10 01:19:02;;;;;;;7.53;4.25;;;;;;;25.35;57.89;98788.69;5015647;28;20033;-59
2022/08/10 01:21:59;;;;;;;6.68;4.30;;;;;;;25.42;57.86;98796.53;5017541;28;20471;-60
2022/08/10 01:24:45;;;;;;;6.78;4.60;;;;;;;25.34;57.83;98797.72;5017441;28;20021;-58
2022/08/10 01:27:11;;;;;;;7.40;4.35;;;;;;;25.32;58.32;98799.81;5010270;28;20036;-59
2022/08/10 01:29:59;;;;;;;6.75;4.88;;;;;;;25.20;58.73;98797.16;5021084;28;20017;-59
2022/08/10 01:32:48;;;;;;;7.57;4.40;;;;;;;25.21;59.22;98790.81;5026099;28;20175;-59
2022/08/10 01:35:37;;;;;;;6.70;4.10;;;;;;;25.11;59.18;98798.56;5013777;28;20436;-59
2022/08/10 01:38:08;;;;;;;7.97;4.72;;;;;;;25.19;58.13;98810.69;5016254;28;20038;-59
2022/08/10 01:40:37;;;;;;;7.65;4.72;;;;;;;25.15;58.77;98807.69;5015999;28;20381;-58
2022/08/10 01:43:05;;;;;;;10.13;4.63;;;;;;;25.11;59.10;98814.53;5014026;28;20045;-60
2022/08/10 01:45:31;;;;;;;7.47;4.40;;;;;;;25.07;59.10;98819.50;5001453;28;20782;-59
2022/08/10 01:50:48;;;;;;;8.48;4.72;;;;;;;24.92;58.86;98776.66;5016423;28;20110;-59
2022/08/10 01:53:23;;;;;;;6.63;4.30;;;;;;;25.05;58.64;98791.53;4999831;28;20095;-60
2022/08/10 01:55:51;;;;;;;9.68;4.25;;;;;;;25.03;59.10;98791.75;5010265;28;20091;-59
2022/08/10 01:58:18;;;;;;;7.10;5.05;;;;;;;25.02;58.86;98795.44;4999401;28;20037;-59
2022/08/10 02:00:44;;;;;;;7.18;4.22;;;;;;;25.10;58.75;98803.09;5002487;28;20671;-60
2022/08/10 02:03:11;;;;;;;6.45;4.20;;;;;;;25.05;58.72;98797.66;4999534;28;20877;-60
2022/08/10 02:05:38;;;;;;;7.60;4.40;;;;;;;25.06;58.08;98798.47;5017770;28;20069;-59
2022/08/10 02:08:05;;;;;;;8.13;4.68;;;;;;;24.84;58.71;98784.97;4996222;28;20038;-57
2022/08/10 02:10:31;;;;;;;7.20;4.50;;;;;;;24.78;59.19;98794.69;4999746;28;20112;-59
2022/08/10 02:12:57;;;;;;;8.95;4.57;;;;;;;24.68;59.69;98797.94;5012479;28;20044;-59
2022/08/10 02:15:24;;;;;;;7.00;4.63;;;;;;;24.58;58.99;98759.69;5000935;28;20021;-58
2022/08/10 02:17:55;;;;;;;7.88;4.10;;;;;;;24.78;59.45;98784.06;4998002;28;20045;-61
2022/08/10 02:20:24;;;;;;;6.90;4.28;;;;;;;24.86;59.64;98785.53;5018437;28;20036;-58
2022/08/10 02:22:58;;;;;;;6.20;4.25;;;;;;;24.94;59.36;98786.00;5002108;28;20021;-58
2022/08/10 02:25:24;;;;;;;8.07;4.38;;;;;;;24.93;59.38;98791.53;5002019;28;20108;-58
2022/08/10 02:27:51;;;;;;;6.57;4.47;;;;;;;24.95;59.42;98792.13;5001654;28;20032;-58
2022/08/10 02:30:16;;;;;;;8.15;4.60;;;;;;;24.90;59.30;98792.81;5011285;28;20037;-59
2022/08/10 02:32:42;;;;;;;6.63;4.72;;;;;;;24.71;59.35;98765.56;5017376;28;20038;-58
2022/08/10 02:35:11;;;;;;;7.22;4.40;;;;;;;24.90;59.60;98787.50;5016942;28;20116;-57
2022/08/10 02:37:37;;;;;;;;;;;;;;;24.82;60.58;98785.19;5016146;28;20056;-60
2022/08/10 02:40:02;;;;;;;8.15;4.63;;;;;;;24.92;60.64;98777.44;5014106;28;19960;-59
2022/08/10 02:42:53;;;;;;;7.22;4.65;;;;;;;24.88;61.26;98784.28;5020507;28;20480;-60
2022/08/10 02:45:42;;;;;;;8.82;4.57;;;;;;;24.80;61.76;98789.13;5019884;28;20076;-60
2022/08/10 02:48:20;;;;;;;;;;;;;;;24.81;61.74;98780.13;5023060;28;20809;-58
2022/08/10 02:50:55;;;;;;;7.55;4.45;;;;;;;24.86;61.83;98766.91;5020695;28;19921;-61
2022/08/10 02:53:31;;;;;;;7.38;4.43;;;;;;;24.97;61.74;98771.44;5006183;28;20040;-60
2022/08/10 02:56:00;;;;;;;6.32;4.30;;;;;;;25.01;61.33;98771.75;5021870;28;20108;-60
2022/08/10 02:58:52;;;;;;;6.97;3.80;;;;;;;24.78;60.88;98744.16;5004588;28;20049;-61
2022/08/10 03:01:20;;;;;;;6.72;4.20;;;;;;;24.85;60.67;98747.50;5002284;28;20045;-58
2022/08/10 03:03:57;;;;;;;9.25;4.15;;;;;;;25.07;60.62;98782.25;4997049;28;20136;-60
2022/08/10 03:06:27;;;;;;;6.10;4.00;;;;;;;25.01;60.43;98777.06;5016978;28;20029;-60
2022/08/10 03:08:54;;;;;;;7.57;4.00;;;;;;;25.08;60.27;98783.06;5021221;28;20122;-59
2022/08/10 03:11:26;;;;;;;6.15;4.07;;;;;;;25.05;60.77;98786.22;5005815;28;20503;-59
2022/08/10 03:13:53;;;;;;;7.10;4.03;;;;;;;24.90;60.62;98758.25;5006328;28;20029;-60
2022/08/10 03:16:20;;;;;;;7.90;4.32;;;;;;;25.10;60.62;98783.66;5003629;28;20075;-59
2022/08/10 03:18:46;;;;;;;6.82;3.88;;;;;;;25.16;60.37;98787.22;5006595;28;20583;-58
2022/08/10 03:21:14;;;;;;;6.80;4.20;;;;;;;25.10;60.49;98783.66;5018887;28;20096;-59
2022/08/10 03:23:40;;;;;;;9.23;4.20;;;;;;;24.98;60.76;98782.88;5005332;28;20534;-59
2022/08/10 03:26:06;;;;;;;8.73;3.90;;;;;;;25.02;60.15;98784.00;5020386;28;20041;-58
2022/08/10 03:28:32;;;;;;;6.00;3.88;;;;;;;24.96;59.92;98782.31;5022014;28;20039;-58
2022/08/10 03:30:59;;;;;;;6.38;4.32;;;;;;;24.87;60.37;98780.00;5016453;28;20040;-58
2022/08/10 03:33:27;;;;;;;6.95;4.40;;;;;;;24.49;60.50;98727.31;5005663;28;20079;-60
2022/08/10 03:35:53;;;;;;;6.68;4.32;;;;;;;24.79;60.78;98785.69;5005920;28;20040;-61
2022/08/10 03:38:18;;;;;;;7.43;4.43;;;;;;;24.66;61.18;98761.97;5022164;28;20363;-60
2022/08/10 03:40:45;;;;;;;6.63;4.47;;;;;;;24.88;61.43;98786.09;5018496;28;20075;-58
2022/08/10 03:43:12;;;;;;;6.93;4.32;;;;;;;24.90;61.90;98781.38;5000058;28;20029;-59
2022/08/10 03:45:38;;;;;;;9.32;4.28;;;;;;;24.88;61.85;98780.78;5002173;28;20060;-57
2022/08/10 03:48:04;;;;;;;6.25;3.97;;;;;;;24.67;61.73;98759.09;5015461;28;20392;-62
2022/08/10 03:50:30;;;;;;;6.88;4.38;;;;;;;24.91;61.30;98781.13;5019921;28;20112;-59
2022/08/10 03:52:56;;;;;;;7.38;4.45;;;;;;;24.83;61.33;98775.38;5022074;28;20076;-60
2022/08/10 03:55:22;;;;;;;7.28;4.70;;;;;;;24.79;61.74;98766.25;5018976;28;20025;-59
2022/08/10 03:57:48;;;;;;;6.68;3.85;;;;;;;24.81;61.08;98775.63;5021472;28;20041;-59
2022/08/10 04:00:17;;;;;;;6.43;4.20;;;;;;;24.85;60.35;98774.09;5003932;28;20459;-60
2022/08/10 04:02:44;;;;;;;7.32;4.00;;;;;;;24.88;60.57;98781.63;5007575;28;20034;-58
2022/08/10 04:05:10;;;;;;;6.25;4.20;;;;;;;24.59;60.66;98748.81;5012712;28;20026;-59
2022/08/10 04:07:35;;;;;;;6.25;4.20;;;;;;;24.79;60.45;98774.22;5019175;28;20044;-60
2022/08/10 04:10:01;;;;;;;7.22;3.90;;;;;;;24.64;60.07;98753.44;5019901;28;20122;-60
2022/08/10 04:12:26;;;;;;;5.93;3.90;;;;;;;24.84;60.10;98792.94;5019596;28;20068;-58
2022/08/10 04:14:51;;;;;;;9.70;4.05;;;;;;;24.82;60.27;98798.50;5021503;28;20021;-59
2022/08/10 04:17:18;;;;;;;6.45;4.32;;;;;;;24.74;60.69;98796.19;5021056;28;20025;-60
2022/08/10 04:19:46;;;;;;;6.43;3.70;;;;;;;24.65;60.42;98766.50;5002857;28;20029;-59
2022/08/10 04:22:21;;;;;;;6.07;4.07;;;;;;;24.93;60.10;98799.53;5002995;28;20038;-59
2022/08/10 04:24:49;;;;;;;7.10;4.10;;;;;;;24.93;60.11;98800.34;5054220;28;20149;-60
2022/08/10 04:27:14;;;;;;;7.55;5.35;;;;;;;24.91;60.48;98799.75;5047178;28;20074;-60
2022/08/10 04:29:41;;;;;;;6.82;4.00;;;;;;;24.87;60.40;98793.28;5003587;28;20033;-60
2022/08/10 04:32:07;;;;;;;7.57;3.75;;;;;;;24.83;60.47;98789.47;5003489;28;20041;-60
2022/08/10 04:34:34;;;;;;;6.80;3.67;;;;;;;24.90;59.73;98794.69;5003113;28;20117;-59
2022/08/10 04:37:03;;;;;;;5.72;3.50;;;;;;;24.73;59.56;98770.63;5019621;28;20040;-58
2022/08/10 04:39:29;;;;;;;6.35;3.58;;;;;;;24.55;60.13;98758.28;5003845;28;20056;-59
2022/08/10 04:41:55;;;;;;;6.95;3.65;;;;;;;24.77;60.75;98794.91;5022041;28;20467;-61
2022/08/10 04:44:21;;;;;;;6.65;3.92;;;;;;;24.78;60.60;98793.88;5019329;28;20145;-59
2022/08/10 04:46:47;;;;;;;5.63;3.70;;;;;;;24.74;60.96;98793.53;5003700;28;20034;-61
2022/08/10 04:49:12;;;;;;;6.28;4.28;;;;;;;24.75;60.06;98798.63;5020488;28;20084;-58
2022/08/10 04:51:38;;;;;;;7.65;3.90;;;;;;;24.62;60.01;98768.81;5017938;28;20117;-58
2022/08/10 04:54:03;;;;;;;9.00;4.38;;;;;;;24.82;60.27;98798.50;5016325;28;20128;-60
2022/08/10 04:56:29;;;;;;;8.07;4.10;;;;;;;24.80;60.09;98805.09;5015389;28;20033;-59
2022/08/10 04:58:55;;;;;;;7.43;3.85;;;;;;;24.65;60.46;98781.66;5018676;28;20585;-58
2022/08/10 05:01:20;;;;;;;11.00;3.88;;;;;;;24.77;60.39;98809.03;5017931;28;20494;-59
2022/08/10 05:03:46;;;;;;;7.55;3.90;;;;;;;24.74;60.34;98812.16;5019742;28;20030;-59
2022/08/10 05:06:11;;;;;;;7.78;4.03;;;;;;;24.77;60.30;98811.69;5019395;28;20038;-60
2022/08/10 05:08:37;;;;;;;6.80;4.40;;;;;;;24.82;60.24;98818.97;5017216;28;20116;-58
2022/08/10 05:11:02;;;;;;;7.20;4.15;;;;;;;24.94;60.02;98817.09;5020492;28;20491;-58
2022/08/10 05:13:28;;;;;;;11.55;4.10;;;;;;;24.79;60.18;98790.16;5019329;28;20087;-58
2022/08/10 05:15:53;;;;;;;8.63;4.65;;;;;;;24.96;59.62;98808.91;5017775;28;20480;-60
2022/08/10 05:18:19;;;;;;;9.32;4.25;;;;;;;25.07;59.97;98821.38;5012928;28;20388;-58
2022/08/10 05:20:44;;;;;;;6.10;3.67;;;;;;;24.87;59.75;98785.31;5013968;28;20517;-59
2022/08/10 05:23:09;;;;;;;10.20;4.22;;;;;;;24.98;59.90;98814.78;5017165;28;20095;-58
2022/08/10 05:25:35;;;;;;;7.53;4.20;;;;;;;24.86;60.39;98809.47;5016416;28;20069;-58
2022/08/10 05:28:01;;;;;;;7.05;4.05;;;;;;;24.97;60.54;98827.28;5012892;28;20033;-58
2022/08/10 05:30:27;;;;;;;6.88;4.03;;;;;;;24.74;60.55;98796.19;5012606;28;20033;-58
2022/08/10 05:32:52;;;;;;;7.95;3.90;;;;;;;24.73;61.33;98790.09;5015801;28;20101;-59
2022/08/10 05:35:18;;;;;;;10.70;4.00;;;;;;;25.00;60.99;98829.47;5018785;28;20767;-58
2022/08/10 05:37:45;;;;;;;7.05;4.40;;;;;;;25.06;61.61;98838.34;5021147;28;20037;-58
2022/08/10 05:40:10;;;;;;;8.90;4.90;;;;;;;25.05;60.93;98832.22;5018528;28;20033;-58
2022/08/10 05:42:36;;;;;;;8.60;4.53;;;;;;;24.93;60.40;98796.88;5016765;28;20542;-61
2022/08/10 05:45:02;;;;;;;6.57;4.05;;;;;;;25.19;60.13;98829.31;5011612;28;20409;-57
2022/08/10 05:47:28;;;;;;;8.18;4.55;;;;;;;25.03;59.93;98817.56;5002153;28;20064;-58
2022/08/10 05:49:54;;;;;;;7.80;4.30;;;;;;;24.98;59.76;98804.16;5018598;28;20060;-57
2022/08/10 05:52:20;;;;;;;7.18;4.50;;;;;;;25.20;60.11;98829.09;5016512;28;20048;-57
2022/08/10 05:54:45;;;;;;;13.23;4.65;;;;;;;25.24;59.99;98835.56;5012630;28;20500;-59
2022/08/10 05:57:12;;;;;;;8.30;4.45;;;;;;;25.17;60.27;98832.19;5020744;28;20039;-57
2022/08/10 05:59:43;;;;;;;8.52;4.30;;;;;;;25.07;60.10;98830.16;5002087;28;20037;-58
2022/08/10 06:02:08;;;;;;;7.93;4.50;;;;;;;25.09;60.25;98832.56;5002582;28;20076;-60
2022/08/10 06:04:40;;;;;;;11.75;4.20;;;;;;;25.17;59.61;98840.19;4999127;28;20022;-58
2022/08/10 06:07:06;;;;;;;8.50;4.20;;;;;;;25.19;59.12;98842.63;4999418;28;20484;-58
2022/08/10 06:09:32;;;;;;;8.80;4.20;;;;;;;25.16;59.27;98849.22;5014769;28;20040;-59
2022/08/10 06:11:59;;;;;;;9.68;4.15;;;;;;;25.24;59.32;98837.44;4995563;28;20120;-57
2022/08/10 06:17:11;;;;;;;6.95;3.90;;;;;;;25.32;57.62;98839.75;5018486;28;20060;-57
2022/08/10 06:19:37;;;;;;;7.53;4.03;;;;;;;24.99;56.81;98776.50;5019007;28;20037;-58
2022/08/10 06:22:02;;;;;;;5.93;3.58;;;;;;;25.37;55.20;98837.16;5020297;28;20026;-58
2022/08/10 06:24:29;;;;;;;7.93;3.55;;;;;;;25.42;54.48;98836.47;5019693;28;20036;-57
2022/08/10 06:26:54;;;;;;;8.52;3.92;;;;;;;25.40;55.23;98836.69;5023709;28;20021;-57
2022/08/10 06:29:21;;;;;;;7.72;4.28;;;;;;;25.43;55.43;98848.75;5004206;28;20711;-56
2022/08/10 06:31:49;;;;;;;6.88;3.75;;;;;;;25.41;54.07;98840.16;5013924;28;20064;-59
2022/08/10 06:34:35;;;;;;;5.90;3.15;;;;;;;25.31;52.14;98811.50;5011115;28;20030;-58
2022/08/10 06:37:02;;;;;;;6.65;2.88;;;;;;;25.51;48.52;98838.50;5009174;28;20666;-60
2022/08/10 06:39:28;;;;;;;5.20;2.70;;;;;;;25.27;47.88;98821.81;5003596;28;20037;-57
2022/08/10 06:41:58;;;;;;;7.30;2.88;;;;;;;25.38;47.49;98838.78;5011920;28;20033;-58
2022/08/10 06:44:28;;;;;;;6.18;2.90;;;;;;;25.42;45.98;98842.59;5008818;28;20043;-60
2022/08/10 06:46:55;;;;;;;7.78;2.60;;;;;;;25.42;46.41;98847.13;5012240;28;20052;-59
2022/08/10 06:49:21;;;;;;;6.10;2.60;;;;;;;25.38;46.64;98848.63;4997734;28;20855;-59
2022/08/10 06:51:51;;;;;;;7.53;2.40;;;;;;;25.24;47.01;98813.50;5006842;28;20041;-62
2022/08/10 06:54:16;;;;;;;;;;;;;;;25.39;46.47;98844.91;5011561;28;20073;-61
2022/08/10 06:56:43;;;;;;;6.93;2.65;;;;;;;25.35;46.36;98846.44;5010209;28;20016;-61
2022/08/10 06:59:27;;;;;;;5.45;2.33;;;;;;;25.41;45.62;98850.81;5013114;28;20132;-60
2022/08/10 07:01:59;;;;;;;6.22;2.50;;;;;;;25.44;45.36;98855.66;5010171;28;20499;-59
2022/08/10 07:04:34;;;;;;;5.25;2.35;;;;;;;25.50;45.73;98854.72;5011524;28;20021;-60
2022/08/10 07:07:02;;;;;;;5.47;2.58;;;;;;;25.39;45.16;98852.91;5016929;28;20029;-59
2022/08/10 07:09:29;;;;;;;6.90;2.60;;;;;;;25.42;44.65;98853.25;5018486;28;20305;-62
2022/08/10 07:11:56;;;;;;;6.38;2.42;;;;;;;25.41;44.40;98859.63;5014327;28;20528;-59
2022/08/10 07:14:22;;;;;;;5.07;2.40;;;;;;;25.40;44.54;98858.00;5005717;28;20540;-60
2022/08/10 07:16:48;;;;;;;5.97;2.58;;;;;;;25.38;44.60;98853.97;5017506;28;20124;-58
2022/08/10 07:19:13;;;;;;;4.95;2.55;;;;;;;25.45;44.93;98859.97;5014085;28;20120;-61
2022/08/10 07:21:42;;;;;;;5.18;2.28;;;;;;;25.49;44.65;98855.78;5017161;28;20370;-58
2022/08/10 07:24:10;;;;;;;5.18;2.20;;;;;;;25.49;44.72;98866.44;5017563;28;20671;-60
2022/08/10 07:26:37;;;;;;;4.97;2.67;;;;;;;25.42;44.36;98858.56;5014668;28;20030;-59
2022/08/10 07:29:04;;;;;;;5.63;2.80;;;;;;;25.36;43.59;98862.19;4997764;28;20456;-59
2022/08/10 07:31:30;;;;;;;5.20;2.10;;;;;;;25.26;44.07;98867.28;5016071;28;20129;-64
2022/08/10 07:33:58;;;;;;;4.95;2.30;;;;;;;25.23;45.16;98855.22;5012977;28;20047;-59
2022/08/10 07:36:24;;;;;;;5.57;2.28;;;;;;;25.35;44.90;98865.06;5016597;28;20037;-61
2022/08/10 07:38:52;;;;;;;5.45;2.45;;;;;;;25.21;44.84;98832.53;5012812;28;20191;-62
2022/08/10 07:41:19;;;;;;;7.43;2.45;;;;;;;25.25;44.52;98863.00;5010927;28;20021;-59
2022/08/10 07:43:45;;;;;;;6.50;2.38;;;;;;;25.14;44.23;98848.66;5016963;28;20048;-58
2022/08/10 07:46:13;;;;;;;4.60;2.03;;;;;;;25.22;43.88;98863.44;5011048;28;20048;-61
2022/08/10 07:48:48;;;;;;;5.28;2.30;;;;;;;25.24;44.36;98869.38;5023773;28;20041;-59
2022/08/10 07:51:15;;;;;;;5.53;2.60;;;;;;;25.24;43.67;98864.84;5015798;28;20094;-61
2022/08/10 07:53:45;;;;;;;5.47;2.40;;;;;;;25.10;43.70;98852.84;5008857;28;20029;-58
2022/08/10 07:56:11;;;;;;;5.55;2.53;;;;;;;24.98;44.01;98834.22;5009061;28;20042;-60
2022/08/10 07:59:02;;;;;;;5.60;2.60;;;;;;;25.21;44.17;98869.78;4998250;28;20053;-59
2022/08/10 08:01:30;;;;;;;4.95;2.45;;;;;;;25.16;44.19;98840.44;5014341;28;20636;-58
2022/08/10 08:03:58;;;;;;;4.35;2.35;;;;;;;25.20;44.90;98861.00;5003361;28;20029;-59
2022/08/10 08:06:24;;;;;;;4.32;2.35;;;;;;;25.29;45.33;98842.88;5009689;28;20025;-59
2022/08/10 08:08:49;;;;;;;5.28;2.45;;;;;;;25.32;44.24;98850.38;5014066;28;20100;-59
2022/08/10 08:11:15;;;;;;;5.60;2.63;;;;;;;25.32;45.00;98837.09;5016650;28;20083;-64
2022/08/10 08:13:41;;;;;;;4.80;2.40;;;;;;;25.46;45.32;98856.25;5016392;28;20811;-59
2022/08/10 08:16:07;;;;;;;7.63;2.75;;;;;;;25.64;44.88;98848.06;5006849;28;20046;-62
2022/08/10 08:18:34;;;;;;;4.60;2.40;;;;;;;26.36;42.73;98844.06;5010629;28;20874;-58
2022/08/10 08:21:00;;;;;;;6.10;2.67;;;;;;;27.08;41.77;98845.13;5013044;28;20025;-58
2022/08/10 08:23:26;;;;;;;7.18;2.38;;;;;;;27.76;38.97;98859.03;5014439;28;20380;-61
2022/08/10 08:25:52;;;;;;;5.07;2.35;;;;;;;28.16;37.35;98820.41;5000604;28;20026;-60
2022/08/10 08:28:18;;;;;;;8.82;2.65;;;;;;;28.68;36.49;98848.38;5013447;28;20488;-59
2022/08/10 08:30:43;;;;;;;5.60;2.40;;;;;;;28.67;36.23;98849.44;5017116;28;20670;-60
2022/08/10 08:33:11;;;;;;;7.15;2.20;;;;;;;29.14;34.90;98855.91;5012286;28;20174;-59
2022/08/10 08:35:37;;;;;;;4.45;2.42;;;;;;;29.25;34.17;98846.03;5012050;28;20667;-60
2022/08/10 08:38:03;;;;;;;4.72;2.45;;;;;;;29.61;33.92;98846.97;5008752;28;20095;-59
2022/08/10 08:40:32;;;;;;;5.00;2.40;;;;;;;29.45;33.60;98818.53;5010221;28;20041;-58
2022/08/10 08:43:24;;;;;;;7.30;2.20;;;;;;;29.13;34.75;98846.22;5009881;28;20041;-60
2022/08/10 08:46:08;;;;;;;5.28;2.13;;;;;;;29.04;35.17;98843.25;5012778;28;20084;-59
2022/08/10 08:48:45;;;;;;;7.63;2.42;;;;;;;28.92;35.64;98843.44;5016032;28;20040;-59
2022/08/10 08:51:49;;;;;;;5.00;2.15;;;;;;;29.59;34.31;98835.72;5013220;28;20100;-58
2022/08/10 08:54:47;;;;;;;5.15;2.28;;;;;;;30.20;34.10;98842.25;5013868;28;20123;-58
2022/08/10 08:57:27;;;;;;;5.20;2.30;;;;;;;30.87;31.80;98845.69;4996360;28;20021;-57
2022/08/10 09:00:04;;;;;;;5.03;2.33;;;;;;;31.43;31.54;98840.16;5020450;28;20133;-62
2022/08/10 09:02:42;;;;;;;5.55;2.47;;;;;;;31.56;30.53;98811.91;5019386;28;20021;-60
2022/08/10 09:05:45;;;;;;;6.05;2.50;;;;;;;31.61;30.39;98838.72;5018254;28;20710;-59
2022/08/10 09:08:32;;;;;;;5.50;2.30;;;;;;;31.98;30.07;98836.59;4995607;28;20039;-59
2022/08/10 09:11:00;;;;;;;8.63;2.38;;;;;;;32.07;30.20;98805.38;5017923;28;20033;-59
2022/08/10 09:13:36;;;;;;;5.88;2.17;;;;;;;31.75;29.58;98830.06;5020482;28;20603;-61
2022/08/10 09:16:13;;;;;;;4.50;1.95;;;;;;;32.19;29.19;98832.72;5017731;28;20035;-62
2022/08/10 09:18:59;;;;;;;8.63;2.30;;;;;;;32.28;28.49;98822.16;5018054;28;20600;-59
2022/08/10 09:21:47;;;;;;;4.93;2.20;;;;;;;31.70;30.20;98833.56;5020313;28;20124;-58
2022/08/10 09:24:24;;;;;;;4.60;2.08;;;;;;;31.67;30.14;98826.09;4997715;28;20034;-59
2022/08/10 09:26:51;;;;;;;14.45;2.40;;;;;;;31.31;30.33;98820.06;5015795;28;20033;-59
2022/08/10 09:29:28;;;;;;;5.05;2.15;;;;;;;30.73;31.00;98815.94;5017215;28;20036;-60
2022/08/10 09:32:08;;;;;;;5.45;2.17;;;;;;;29.73;32.37;98809.19;5010018;28;20049;-58
2022/08/10 09:35:02;;;;;;;4.32;2.28;;;;;;;29.47;33.16;98822.53;5011135;28;20032;-60
2022/08/10 09:37:43;;;;;;;5.50;2.03;;;;;;;29.19;33.17;98818.44;5018230;28;20068;-59
2022/08/10 09:40:15;;;;;;;6.65;1.80;;;;;;;29.18;32.32;98808.78;5016049;28;20045;-60
2022/08/10 09:42:47;;;;;;;4.20;2.00;;;;;;;28.78;33.42;98812.84;5016957;28;20026;-59
2022/08/10 09:45:51;;;;;;;5.82;2.20;;;;;;;28.94;33.80;98803.84;5019889;28;20030;-59
2022/08/10 09:48:39;;;;;;;5.97;2.10;;;;;;;28.60;33.93;98773.16;5013572;28;20038;-59
2022/08/10 09:51:31;;;;;;;4.93;2.35;;;;;;;28.78;34.45;98798.69;5018151;28;20037;-59
2022/08/10 09:54:25;;;;;;;5.13;2.25;;;;;;;28.71;34.59;98797.03;5019889;28;20112;-59
2022/08/10 09:57:05;;;;;;;7.07;2.10;;;;;;;28.88;33.51;98799.53;5017913;28;20033;-57
2022/08/10 09:59:41;;;;;;;4.65;1.92;;;;;;;28.81;34.63;98782.91;5018586;28;20060;-59
2022/08/10 10:02:28;;;;;;;5.18;2.40;;;;;;;28.89;33.48;98781.59;5013314;28;20045;-61
2022/08/10 10:05:05;;;;;;;5.18;2.40;;;;;;;28.88;34.28;98786.16;5049569;28;20108;-60
2022/08/10 10:07:33;;;;;;;4.72;2.25;;;;;;;28.88;34.89;98791.50;5018600;28;20025;-59
2022/08/10 10:10:08;;;;;;;4.90;2.40;;;;;;;28.66;35.01;98761.41;4996914;28;20504;-60
2022/08/10 10:12:54;;;;;;;4.65;2.40;;;;;;;28.64;35.74;98785.78;5016441;28;20307;-60
2022/08/10 10:15:44;;;;;;;4.35;2.10;;;;;;;28.61;35.46;98796.19;5024345;28;20491;-58
2022/08/10 10:18:28;;;;;;;5.25;2.38;;;;;;;28.68;34.87;98781.50;5009496;28;20424;-58
2022/08/10 10:21:14;;;;;;;4.97;2.38;;;;;;;28.85;35.27;98777.84;5024599;28;20029;-60
2022/08/10 10:24:24;;;;;;;5.43;2.00;;;;;;;28.97;35.02;98773.09;5019180;28;20360;-59
2022/08/10 10:27:18;;;;;;;6.47;2.30;;;;;;;28.94;35.31;98769.03;4968591;28;20034;-59
2022/08/10 10:29:58;;;;;;;5.95;1.90;;;;;;;29.03;35.38;98761.31;4960849;28;20690;-61
2022/08/10 10:32:29;;;;;;;4.35;2.10;;;;;;;28.75;35.70;98762.56;5005784;28;20045;-63
2022/08/10 10:35:06;;;;;;;5.00;2.30;;;;;;;28.87;34.76;98765.81;4998581;28;20238;-60
2022/08/10 10:37:32;;;;;;;5.05;2.50;;;;;;;28.50;35.90;98765.84;5019114;28;20033;-62
2022/08/10 10:40:00;;;;;;;4.97;2.05;;;;;;;28.63;35.67;98762.75;5000453;28;20040;-59
2022/08/10 10:42:31;;;;;;;6.60;2.15;;;;;;;28.60;35.45;98757.91;5015957;28;20037;-59
2022/08/10 10:45:05;;;;;;;5.70;2.33;;;;;;;28.74;35.51;98752.91;5018530;28;20064;-60
2022/08/10 10:47:57;;;;;;;6.18;2.40;;;;;;;28.74;35.02;98761.72;5023285;28;20037;-59
2022/08/10 10:50:40;;;;;;;7.22;2.17;;;;;;;28.72;35.13;98755.84;5017491;28;20037;-59
2022/08/10 10:53:08;;;;;;;5.18;2.30;;;;;;;28.86;35.54;98747.31;4998139;28;20033;-60
2022/08/10 10:55:47;;;;;;;5.13;2.27;;;;;;;28.83;35.37;98750.53;5016587;28;20043;-60
2022/08/10 10:58:41;;;;;;;4.40;2.40;;;;;;;28.92;35.08;98746.31;5004381;28;20033;-59
2022/08/10 11:01:21;;;;;;;5.35;2.42;;;;;;;28.97;34.91;98745.50;5002022;28;20030;-61
2022/08/10 11:04:05;;;;;;;6.20;2.50;;;;;;;29.11;33.98;98742.06;4940471;28;20120;-63
2022/08/10 11:06:50;;;;;;;5.38;2.15;;;;;;;29.03;35.13;98739.13;5011949;28;20033;-59
2022/08/10 11:09:43;;;;;;;5.50;2.35;;;;;;;29.12;34.60;98740.22;5010749;28;20064;-58
2022/08/10 11:12:18;;;;;;;4.72;2.50;;;;;;;28.72;34.26;98701.53;5014164;28;20049;-64
2022/08/10 11:14:55;;;;;;;5.03;2.35;;;;;;;28.88;34.90;98734.53;5017982;28;20090;-61
2022/08/10 11:17:36;;;;;;;7.43;2.30;;;;;;;29.09;33.96;98730.03;5014130;28;20022;-60
2022/08/10 11:20:07;;;;;;;5.95;2.22;;;;;;;29.09;34.03;98711.28;5000446;28;20033;-59
2022/08/10 11:22:43;;;;;;;5.47;2.05;;;;;;;29.08;34.52;98728.44;5009702;28;20145;-59
2022/08/10 11:25:23;;;;;;;5.28;2.15;;;;;;;28.90;34.11;98689.56;5013535;28;20038;-59
2022/08/10 11:28:12;;;;;;;5.20;2.40;;;;;;;29.27;33.23;98716.19;5015282;28;20483;-59
2022/08/10 11:30:58;;;;;;;6.22;2.30;;;;;;;29.08;33.91;98717.72;5016096;28;20140;-59
2022/08/10 11:33:23;;;;;;;4.22;2.10;;;;;;;28.92;34.74;98684.75;5017209;28;20116;-59
2022/08/10 11:36:16;;;;;;;5.13;2.30;;;;;;;29.41;33.98;98705.78;5017742;28;20025;-59
2022/08/10 11:39:04;;;;;;;6.47;2.22;;;;;;;29.39;34.05;98705.25;5012681;28;20265;-59
2022/08/10 11:41:44;;;;;;;6.40;2.30;;;;;;;29.47;32.54;98710.06;5017575;28;20033;-62
2022/08/10 11:44:31;;;;;;;4.43;2.38;;;;;;;29.39;33.36;98710.59;5017963;28;20029;-59
2022/08/10 11:47:13;;;;;;;7.00;2.40;;;;;;;29.28;33.21;98685.66;5017540;28;20037;-59
2022/08/10 11:49:58;;;;;;;4.40;2.28;;;;;;;29.43;34.05;98690.25;5017129;28;20041;-58
2022/08/10 11:52:24;;;;;;;4.40;2.15;;;;;;;29.36;33.44;98686.22;5018324;28;20065;-62
2022/08/10 11:54:52;;;;;;;5.43;2.33;;;;;;;29.52;32.77;98688.63;5020480;28;20115;-60
2022/08/10 11:57:18;;;;;;;7.27;2.47;;;;;;;29.47;33.10;98680.59;5012831;28;20349;-61
2022/08/10 11:59:56;;;;;;;4.90;1.90;;;;;;;29.55;33.43;98681.13;5010430;28;20200;-60
2022/08/10 12:02:25;;;;;;;5.75;2.10;;;;;;;29.62;33.41;98684.34;5009404;28;20038;-59